Time;durP1;ratioP1;P1;durP2;ratioP2;P2;SDS_P1;SDS_P2;PMS_P1;PMS_P2;Temp;Humidity;BMP_temperature;BMP_pressure;BME280_temperature;BME280_humidity;BME280_pressure;Samples;Min_cycle;Max_cycle;Signal;HPM_P1;HPM_P2
2022/05/08 00:02:22;;;;;;;1999.90;999.90;;;8.70;1.00;;;;;;4992204;28;20054;-78
2022/05/08 00:04:52;;;;;;;1999.90;999.90;;;8.50;1.00;;;;;;4993952;28;20101;-75
2022/05/08 00:07:19;;;;;;;1999.90;999.90;;;8.70;1.00;;;;;;4992965;28;20130;-75
2022/05/08 00:09:46;;;;;;;1999.90;999.90;;;8.00;1.00;;;;;;4992902;28;20474;-74
2022/05/08 00:12:13;;;;;;;1999.90;999.90;;;9.00;1.00;;;;;;4993302;28;20491;-74
2022/05/08 00:14:40;;;;;;;1999.90;999.90;;;8.00;1.00;;;;;;4993421;28;20054;-74
2022/05/08 00:17:06;;;;;;;1999.90;999.90;;;8.50;1.00;;;;;;4993241;28;20694;-74
2022/05/08 00:19:31;;;;;;;1999.90;999.90;;;7.90;1.00;;;;;;4975679;28;20158;-75
2022/05/08 00:21:57;;;;;;;1999.90;999.90;;;8.60;1.00;;;;;;4992727;28;20049;-74
2022/05/08 00:24:23;;;;;;;1999.90;999.90;;;7.80;1.00;;;;;;4976165;28;20129;-74
2022/05/08 00:26:49;;;;;;;1999.90;999.90;;;7.80;1.00;;;;;;4993210;28;20048;-74
2022/05/08 00:29:15;;;;;;;1999.90;999.90;;;8.10;1.00;;;;;;4959669;28;20082;-74
2022/05/08 00:31:44;;;;;;;1999.90;999.90;;;8.80;1.00;;;;;;4992646;28;20404;-75
2022/05/08 00:34:09;;;;;;;1999.90;999.90;;;8.50;1.00;;;;;;4993538;28;20073;-74
2022/05/08 00:36:35;;;;;;;1999.90;999.90;;;8.10;1.00;;;;;;4992228;28;20050;-74
2022/05/08 00:39:01;;;;;;;1999.90;999.90;;;7.60;1.00;;;;;;4975532;28;20105;-74
2022/05/08 00:41:26;;;;;;;1999.90;999.90;;;8.30;1.00;;;;;;4975444;28;20108;-78
2022/05/08 00:43:52;;;;;;;1999.90;999.90;;;8.30;1.00;;;;;;4992768;28;20057;-74
2022/05/08 00:46:18;;;;;;;1999.90;999.90;;;7.50;1.00;;;;;;4975078;28;20061;-75
2022/05/08 00:48:44;;;;;;;1999.90;999.90;;;7.40;1.00;;;;;;4974931;28;20085;-74
2022/05/08 00:51:12;;;;;;;1999.90;999.90;;;7.40;1.00;;;;;;4975160;28;20038;-74
2022/05/08 00:53:43;;;;;;;1999.90;999.90;;;7.40;1.00;;;;;;4992345;28;20050;-82
2022/05/08 00:56:13;;;;;;;1999.90;999.90;;;7.50;1.00;;;;;;4992411;28;20042;-75
2022/05/08 00:58:41;;;;;;;1999.90;999.90;;;7.40;1.00;;;;;;4991588;28;20580;-74
2022/05/08 01:01:08;;;;;;;1999.90;999.90;;;7.40;1.00;;;;;;4973884;28;20101;-74
2022/05/08 01:03:34;;;;;;;1999.90;999.90;;;7.40;1.00;;;;;;4992213;28;20054;-74
2022/05/08 01:06:05;;;;;;;1999.90;999.90;;;7.30;1.00;;;;;;4992179;28;20050;-74
2022/05/08 01:08:33;;;;;;;1999.90;999.90;;;7.30;1.00;;;;;;4991852;28;20402;-77
2022/05/08 01:11:00;;;;;;;;;;;8.40;1.00;;;;;;4975002;28;20057;-74
2022/05/08 01:13:26;;;;;;;1999.90;999.90;;;7.20;1.00;;;;;;4991376;28;19926;-74
2022/05/08 01:15:54;;;;;;;1999.90;999.90;;;7.20;1.00;;;;;;4991546;28;20550;-73
2022/05/08 01:18:19;;;;;;;;;;;7.10;1.00;;;;;;4991106;28;20046;-74
2022/05/08 01:20:47;;;;;;;1883.13;997.55;;;7.10;1.00;;;;;;4991532;28;20016;-75
2022/05/08 01:23:13;;;;;;;1870.32;999.90;;;8.10;1.00;;;;;;4991997;28;20113;-73
2022/05/08 01:25:50;;;;;;;1999.90;999.90;;;7.60;1.00;;;;;;4974262;28;20403;-74
2022/05/08 01:28:16;;;;;;;1908.97;999.90;;;7.00;1.00;;;;;;4991386;28;20050;-74
2022/05/08 01:30:44;;;;;;;1999.90;999.90;;;7.20;1.00;;;;;;4990652;28;20065;-73
2022/05/08 01:33:10;;;;;;;1999.90;999.90;;;7.00;1.00;;;;;;4973734;28;20109;-73
2022/05/08 01:35:37;;;;;;;1999.90;999.90;;;7.60;1.00;;;;;;4991504;28;20096;-75
2022/05/08 01:38:04;;;;;;;1999.90;999.90;;;6.90;1.00;;;;;;4991096;28;20042;-73
2022/05/08 01:40:30;;;;;;;1999.90;999.90;;;6.90;1.00;;;;;;4992189;28;20050;-73
2022/05/08 01:42:56;;;;;;;1943.40;999.90;;;6.80;1.00;;;;;;4991663;28;20635;-73
2022/05/08 01:45:23;;;;;;;1978.78;999.90;;;7.20;1.00;;;;;;4991195;28;20046;-73
2022/05/08 01:50:35;;;;;;;1544.35;999.90;;;6.80;1.00;;;;;;4991861;28;20053;-73
2022/05/08 01:53:01;;;;;;;1572.70;999.90;;;6.70;1.00;;;;;;4991154;28;20046;-73
2022/05/08 01:55:27;;;;;;;1514.78;999.90;;;6.70;1.00;;;;;;4991086;28;20050;-73
2022/05/08 01:57:55;;;;;;;1534.53;999.90;;;6.70;1.00;;;;;;4990954;28;20054;-73
2022/05/08 02:00:22;;;;;;;1372.40;998.20;;;6.60;1.00;;;;;;4991452;28;20066;-73
2022/05/08 02:02:52;;;;;;;1683.75;999.90;;;6.60;1.00;;;;;;4991255;28;20053;-73
2022/05/08 02:05:20;;;;;;;1794.60;999.90;;;6.60;1.00;;;;;;4990820;28;20046;-73
2022/05/08 02:07:47;;;;;;;1689.13;999.90;;;6.60;1.00;;;;;;4990766;28;20456;-73
2022/05/08 02:10:14;;;;;;;1570.43;999.90;;;7.60;1.00;;;;;;4991664;28;20035;-73
2022/05/08 02:12:41;;;;;;;1704.53;999.90;;;6.50;1.00;;;;;;4973325;28;20289;-77
2022/05/08 02:15:09;;;;;;;1531.55;999.90;;;6.50;1.00;;;;;;4991149;28;20053;-73
2022/05/08 02:17:36;;;;;;;1773.30;999.90;;;6.50;1.00;;;;;;4991366;28;20058;-73
2022/05/08 02:20:04;;;;;;;1452.13;999.90;;;7.40;1.00;;;;;;4990872;28;20046;-73
2022/05/08 02:22:29;;;;;;;1412.95;999.90;;;6.40;1.00;;;;;;4991063;28;20050;-73
2022/05/08 02:24:55;;;;;;;1421.22;999.90;;;6.90;1.00;;;;;;4990649;28;20129;-73
2022/05/08 02:27:21;;;;;;;1685.32;999.90;;;8.10;1.00;;;;;;4990984;28;20088;-73
2022/05/08 02:29:48;;;;;;;1522.03;999.90;;;6.90;1.00;;;;;;4973674;28;20173;-73
2022/05/08 02:32:14;;;;;;;1288.32;993.35;;;6.40;1.00;;;;;;4990895;28;20353;-74
2022/05/08 02:34:40;;;;;;;1602.30;999.90;;;7.50;1.00;;;;;;4973970;28;20476;-73
2022/05/08 02:37:06;;;;;;;1514.75;999.90;;;7.40;1.00;;;;;;4989864;28;20098;-73
2022/05/08 02:39:32;;;;;;;1293.03;988.70;;;7.20;1.00;;;;;;4990038;28;20050;-73
2022/05/08 02:41:58;;;;;;;1338.20;990.35;;;6.20;1.00;;;;;;4972928;28;20152;-73
2022/05/08 02:44:23;;;;;;;1366.07;989.20;;;6.40;1.00;;;;;;4991155;28;20216;-74
2022/05/08 02:46:49;;;;;;;1644.50;999.90;;;6.20;1.00;;;;;;4973192;28;20574;-74
2022/05/08 02:49:15;;;;;;;1733.40;999.90;;;6.20;1.00;;;;;;4990708;28;20051;-73
2022/05/08 02:51:41;;;;;;;1855.72;999.90;;;6.20;1.00;;;;;;4989306;28;20177;-73
2022/05/08 02:54:06;;;;;;;1539.70;999.90;;;6.10;1.00;;;;;;4957103;28;20130;-74
2022/05/08 02:59:16;;;;;;;1755.18;999.90;;;6.40;1.00;;;;;;4989605;28;20196;-75
2022/05/08 03:01:42;;;;;;;1918.45;999.90;;;6.10;1.00;;;;;;4969821;28;20082;-76
2022/05/08 03:04:08;;;;;;;1765.10;999.90;;;6.00;1.00;;;;;;4990385;28;20049;-74
2022/05/08 03:06:34;;;;;;;1452.70;999.90;;;6.20;1.00;;;;;;4990776;28;20122;-74
2022/05/08 03:09:00;;;;;;;1998.32;999.90;;;;;;;;;;4993108;28;20050;-74
2022/05/08 03:11:26;;;;;;;1874.30;999.90;;;5.90;1.00;;;;;;4995012;28;20089;-74
2022/05/08 03:13:52;;;;;;;1999.90;999.90;;;6.00;1.00;;;;;;4993370;28;20148;-74
2022/05/08 03:16:19;;;;;;;1965.45;999.90;;;7.00;1.00;;;;;;4994470;28;20054;-74
2022/05/08 03:18:45;;;;;;;1655.57;999.90;;;5.90;1.00;;;;;;4977023;28;20073;-74
2022/05/08 03:21:13;;;;;;;1862.38;999.90;;;7.20;1.00;;;;;;4993714;28;20046;-74
2022/05/08 03:23:39;;;;;;;1791.68;999.90;;;5.80;1.00;;;;;;4994272;28;20128;-74
2022/05/08 03:26:06;;;;;;;1869.93;999.90;;;7.50;1.00;;;;;;4993728;28;20092;-74
2022/05/08 03:28:33;;;;;;;1998.93;999.90;;;5.80;1.00;;;;;;4994391;28;20325;-74
2022/05/08 03:30:59;;;;;;;1716.20;994.83;;;5.70;1.00;;;;;;4993440;28;20561;-75
2022/05/08 03:33:26;;;;;;;1684.00;999.90;;;5.70;1.00;;;;;;4994628;28;20200;-74
2022/05/08 03:35:52;;;;;;;1630.13;999.90;;;5.70;1.00;;;;;;4993151;28;20042;-74
2022/05/08 03:38:20;;;;;;;1860.53;999.90;;;5.70;1.00;;;;;;4994522;28;20073;-74
2022/05/08 03:40:46;;;;;;;1554.38;982.67;;;5.70;1.00;;;;;;4992508;28;20043;-74
2022/05/08 03:43:12;;;;;;;1504.10;990.97;;;5.60;1.00;;;;;;4993706;28;20077;-74
2022/05/08 03:45:37;;;;;;;1399.15;985.38;;;5.60;1.00;;;;;;4994256;28;20146;-75
2022/05/08 03:48:04;;;;;;;1641.82;993.40;;;6.20;1.00;;;;;;4991827;28;20057;-74
2022/05/08 03:50:29;;;;;;;1663.53;986.33;;;5.60;1.00;;;;;;4993448;28;20154;-74
2022/05/08 03:52:59;;;;;;;1999.90;995.05;;;5.60;1.00;;;;;;4992837;28;20042;-74
2022/05/08 03:55:25;;;;;;;1781.03;952.33;;;5.60;1.00;;;;;;4976832;28;20494;-74
2022/05/08 03:57:51;;;;;;;1231.50;677.17;;;5.60;1.00;;;;;;4993124;28;20042;-77
2022/05/08 04:00:18;;;;;;;1738.95;815.95;;;6.60;1.00;;;;;;4993210;28;20062;-74
2022/05/08 04:02:44;;;;;;;1999.90;944.85;;;5.60;1.00;;;;;;4993134;28;20085;-74
2022/05/08 04:05:10;;;;;;;1952.97;989.35;;;5.60;1.00;;;;;;4993300;28;20050;-74
2022/05/08 04:07:37;;;;;;;1749.55;991.97;;;5.60;1.00;;;;;;4975914;28;20530;-75
2022/05/08 04:10:03;;;;;;;1861.45;997.55;;;5.60;1.00;;;;;;4992967;28;20510;-74
2022/05/08 04:12:29;;;;;;;1854.47;988.13;;;5.60;1.00;;;;;;4993042;28;20081;-74
2022/05/08 04:14:55;;;;;;;1473.65;976.05;;;6.10;1.00;;;;;;4993134;28;20468;-75
2022/05/08 04:17:20;;;;;;;1375.95;966.60;;;5.60;1.00;;;;;;4993496;28;20055;-74
2022/05/08 04:19:46;;;;;;;1796.32;941.67;;;5.60;1.00;;;;;;4991182;28;20137;-74
2022/05/08 04:24:57;;;;;;;1670.80;850.72;;;6.20;1.00;;;;;;4992533;28;20561;-74
2022/05/08 04:27:23;;;;;;;1631.63;853.13;;;7.00;1.00;;;;;;4993394;28;20046;-75
2022/05/08 04:29:49;;;;;;;1430.63;846.60;;;5.70;1.00;;;;;;4992773;28;20283;-74
2022/05/08 04:32:15;;;;;;;1562.60;873.28;;;5.70;1.00;;;;;;4992084;28;20046;-74
2022/05/08 04:34:40;;;;;;;1663.47;900.03;;;5.70;1.00;;;;;;4993177;28;20042;-74
2022/05/08 04:37:06;;;;;;;1592.78;950.70;;;5.70;1.00;;;;;;4991733;28;20054;-73
2022/05/08 04:39:32;;;;;;;1404.78;973.53;;;5.80;1.00;;;;;;4975195;28;20070;-74
2022/05/08 04:41:59;;;;;;;1217.15;979.65;;;5.80;1.00;;;;;;4992678;28;20421;-77
2022/05/08 04:44:25;;;;;;;1525.85;926.42;;;6.50;1.00;;;;;;4993057;28;20133;-74
2022/05/08 04:46:50;;;;;;;1532.88;973.90;;;6.40;1.00;;;;;;4992677;28;20047;-74
2022/05/08 04:49:16;;;;;;;1427.03;991.35;;;5.80;1.00;;;;;;4991781;28;20211;-74
2022/05/08 04:51:42;;;;;;;1515.75;950.10;;;7.90;1.00;;;;;;4991160;28;20046;-74
2022/05/08 04:54:08;;;;;;;1758.65;897.83;;;6.70;1.00;;;;;;4991980;28;20057;-74
2022/05/08 04:56:33;;;;;;;1479.88;967.17;;;6.00;1.00;;;;;;4992285;28;20173;-74
2022/05/08 04:58:59;;;;;;;1695.13;974.45;;;6.00;1.00;;;;;;4992416;28;20053;-77
2022/05/08 05:01:25;;;;;;;1987.93;963.92;;;6.00;1.00;;;;;;4991979;28;20101;-74
2022/05/08 05:03:51;;;;;;;1865.45;908.65;;;6.10;1.00;;;;;;4992536;28;20129;-74
2022/05/08 05:06:17;;;;;;;1900.32;944.83;;;6.10;1.00;;;;;;4990793;28;20046;-75
2022/05/08 05:08:43;;;;;;;1669.30;943.28;;;6.20;1.00;;;;;;4992457;28;20058;-74
2022/05/08 05:11:09;;;;;;;1700.20;921.22;;;7.90;1.00;;;;;;4991481;28;20372;-75
2022/05/08 05:13:39;;;;;;;1563.70;908.15;;;6.30;1.00;;;;;;4992052;28;20046;-77
2022/05/08 05:16:05;;;;;;;1999.90;999.90;;;6.40;1.00;;;;;;4991430;28;20046;-75
2022/05/08 05:18:31;;;;;;;1745.03;933.00;;;7.10;1.00;;;;;;4992409;28;20446;-74
2022/05/08 05:20:57;;;;;;;1954.85;943.92;;;7.10;1.00;;;;;;4991186;28;20676;-74
2022/05/08 05:23:23;;;;;;;1999.90;966.75;;;6.70;1.00;;;;;;4991339;28;20097;-74
2022/05/08 05:25:49;;;;;;;1999.90;985.35;;;6.50;1.00;;;;;;4992022;28;20146;-74
2022/05/08 05:28:16;;;;;;;1769.97;921.53;;;6.90;1.00;;;;;;4991591;28;20125;-74
2022/05/08 05:30:42;;;;;;;1361.00;899.03;;;7.80;1.00;;;;;;4973079;28;20141;-75
2022/05/08 05:33:07;;;;;;;1512.55;973.80;;;6.60;1.00;;;;;;4973361;28;20189;-74
2022/05/08 05:35:37;;;;;;;1574.03;963.78;;;6.70;1.00;;;;;;4974653;28;20047;-74
2022/05/08 05:38:03;;;;;;;1306.93;991.72;;;6.80;1.00;;;;;;4991227;28;20100;-77
2022/05/08 05:40:29;;;;;;;1399.38;999.90;;;6.80;1.00;;;;;;4991426;28;20050;-74
2022/05/08 05:42:57;;;;;;;1485.40;990.47;;;6.90;1.00;;;;;;4991807;28;20502;-74
2022/05/08 05:45:23;;;;;;;1708.57;909.88;;;8.00;1.00;;;;;;4974112;28;20089;-74
2022/05/08 05:47:49;;;;;;;1459.55;999.90;;;7.00;1.00;;;;;;4990738;28;20053;-74
2022/05/08 05:50:18;;;;;;;1314.72;894.00;;;7.10;1.00;;;;;;4989980;28;20042;-74
2022/05/08 05:52:44;;;;;;;1378.75;958.65;;;7.20;1.00;;;;;;4991582;28;20153;-73
2022/05/08 05:55:09;;;;;;;1526.45;984.97;;;7.90;1.00;;;;;;4974307;28;20136;-74
2022/05/08 05:57:39;;;;;;;1579.95;999.90;;;7.30;1.00;;;;;;4974490;28;20387;-75
2022/05/08 06:00:18;;;;;;;1981.07;999.90;;;7.40;1.00;;;;;;4989740;28;20069;-77
2022/05/08 06:02:45;;;;;;;1803.47;900.22;;;7.60;1.00;;;;;;4991183;28;20157;-75
2022/05/08 06:05:12;;;;;;;1088.05;872.47;;;9.10;1.00;;;;;;4972880;28;20336;-76
2022/05/08 06:07:39;;;;;;;1864.07;939.30;;;8.00;1.00;;;;;;4989482;28;20077;-76
2022/05/08 06:10:09;;;;;;;1850.70;917.22;;;8.40;1.00;;;;;;4991524;28;20524;-75
2022/05/08 06:12:35;;;;;;;1531.93;999.90;;;8.40;1.00;;;;;;4991864;28;20455;-75
2022/05/08 06:15:02;;;;;;;1831.47;895.10;;;9.00;1.00;;;;;;4990778;28;20046;-75
2022/05/08 06:17:27;;;;;;;1342.05;999.90;;;8.90;1.00;;;;;;4990788;28;20187;-75
2022/05/08 06:19:53;;;;;;;1999.90;980.85;;;9.10;1.00;;;;;;4973965;28;20062;-75
2022/05/08 06:22:19;;;;;;;1999.90;999.90;;;9.80;1.00;;;;;;4991381;28;20050;-75
2022/05/08 06:24:45;;;;;;;1999.90;999.90;;;9.60;1.00;;;;;;4991825;28;20054;-75
2022/05/08 06:27:10;;;;;;;1949.35;999.90;;;10.40;1.00;;;;;;4990681;28;20439;-76
2022/05/08 06:29:36;;;;;;;840.88;772.10;;;10.30;1.00;;;;;;4990897;28;20356;-75
2022/05/08 06:32:03;;;;;;;1504.57;960.50;;;10.10;1.00;;;;;;4991581;28;20068;-75
2022/05/08 06:34:29;;;;;;;1999.90;999.90;;;10.20;1.00;;;;;;4991460;28;20420;-75
2022/05/08 06:36:55;;;;;;;1228.30;905.65;;;10.20;1.00;;;;;;4991079;28;20098;-75
2022/05/08 06:39:21;;;;;;;970.97;771.55;;;10.30;1.00;;;;;;4990913;28;20046;-74
2022/05/08 06:41:47;;;;;;;709.58;647.63;;;10.50;1.00;;;;;;4991304;28;20058;-76
2022/05/08 06:44:15;;;;;;;1159.85;893.88;;;10.70;1.00;;;;;;4976577;28;20396;-75
2022/05/08 06:46:41;;;;;;;1212.30;952.95;;;10.90;1.00;;;;;;4994830;28;20050;-75
2022/05/08 06:49:07;;;;;;;1287.32;999.90;;;11.30;1.00;;;;;;4977483;28;20109;-74
2022/05/08 06:51:34;;;;;;;646.08;593.22;;;11.50;1.00;;;;;;4976687;28;20057;-75
2022/05/08 06:54:00;;;;;;;804.42;736.92;;;11.70;1.00;;;;;;4995095;28;20050;-75
2022/05/08 06:56:26;;;;;;;837.00;768.78;;;11.80;1.00;;;;;;4993545;28;20153;-75
2022/05/08 07:01:42;;;;;;;744.53;681.40;;;11.80;1.00;;;;;;4994327;28;20149;-75
2022/05/08 07:04:12;;;;;;;599.58;553.83;;;11.80;99.90;;;;;;4994153;28;20046;-75
2022/05/08 07:06:39;;;;;;;718.35;665.72;;;12.10;99.90;;;;;;4976738;28;20050;-74
2022/05/08 07:09:06;;;;;;;916.50;836.00;;;13.40;99.90;;;;;;4994815;28;20069;-76
2022/05/08 07:11:33;;;;;;;1001.80;906.17;;;13.10;99.90;;;;;;4994557;28;20054;-76
2022/05/08 07:14:01;;;;;;;879.75;809.60;;;13.10;99.90;;;;;;4977728;28;20097;-76
2022/05/08 07:16:27;;;;;;;764.70;707.38;;;13.30;99.90;;;;;;4976607;28;20050;-76
2022/05/08 07:18:53;;;;;;;890.08;819.83;;;13.50;99.90;;;;;;4994474;28;20100;-77
2022/05/08 07:21:19;;;;;;;928.25;853.25;;;14.10;99.90;;;;;;4994321;28;20086;-76
2022/05/08 07:23:46;;;;;;;840.70;769.15;;;15.20;99.90;;;;;;4977243;28;20043;-75
2022/05/08 07:26:12;;;;;;;661.10;612.38;;;16.40;99.90;;;;;;4994691;28;20054;-76
2022/05/08 07:28:38;;;;;;;609.55;565.97;;;17.20;99.90;;;;;;4993969;28;20057;-76
2022/05/08 07:31:03;;;;;;;847.58;778.72;;;18.20;99.90;;;;;;4993126;28;20054;-76
2022/05/08 07:33:34;;;;;;;829.80;756.42;;;19.40;99.90;;;;;;4975952;28;20038;-75
2022/05/08 07:36:13;;;;;;;817.38;751.05;;;20.30;99.90;;;;;;4976505;28;20050;-75
2022/05/08 07:38:48;;;;;;;1999.90;860.90;;;21.20;99.90;;;;;;4991736;28;20042;-79
2022/05/08 07:41:18;;;;;;;1186.40;936.97;;;20.60;99.90;;;;;;4994568;28;20038;-80
2022/05/08 07:43:47;;;;;;;1430.63;999.70;;;18.40;99.90;;;;;;4977029;28;20065;-80
2022/05/08 07:46:15;;;;;;;1826.95;999.90;;;16.80;99.90;;;;;;4994060;28;20398;-80
2022/05/08 07:48:41;;;;;;;1979.40;999.90;;;15.60;99.90;;;;;;4992649;28;20152;-80
2022/05/08 07:51:07;;;;;;;1909.40;999.90;;;14.70;99.90;;;;;;4992213;28;20352;-81
2022/05/08 07:53:34;;;;;;;1788.50;999.90;;;14.10;99.90;;;;;;4993388;28;20133;-82
2022/05/08 07:56:00;;;;;;;1060.15;916.70;;;13.60;99.90;;;;;;4992088;28;20053;-80
2022/05/08 07:58:33;;;;;;;1633.32;999.90;;;13.80;1.00;;;;;;4975642;28;20128;-80
2022/05/08 08:01:00;;;;;;;1933.05;999.90;;;14.20;1.00;;;;;;4993051;28;20498;-81
2022/05/08 08:03:28;;;;;;;1565.15;999.90;;;14.50;1.00;;;;;;4993651;28;20050;-81
2022/05/08 08:05:54;;;;;;;;;;;14.20;99.90;;;;;;4976290;28;20446;-81
2022/05/08 08:08:23;;;;;;;1076.03;883.50;;;14.20;99.90;;;;;;4991515;28;20118;-80
2022/05/08 08:10:53;;;;;;;1999.90;999.90;;;14.20;99.90;;;;;;4976077;28;20050;-80
2022/05/08 08:13:20;;;;;;;1649.40;999.90;;;15.20;99.90;;;;;;4993589;28;20456;-80
2022/05/08 08:15:50;;;;;;;791.42;725.67;;;16.50;99.90;;;;;;4993156;28;20133;-80
2022/05/08 08:18:16;;;;;;;791.55;719.95;;;17.60;99.90;;;;;;4992834;28;20199;-80
2022/05/08 08:20:42;;;;;;;952.80;794.88;;;18.40;99.90;;;;;;4991758;28;20154;-80
2022/05/08 08:23:09;;;;;;;541.78;496.80;;;18.40;99.90;;;;;;4992543;28;20060;-79
2022/05/08 08:25:35;;;;;;;639.17;589.78;;;18.40;99.90;;;;;;4993121;28;20042;-80
2022/05/08 08:28:01;;;;;;;686.22;631.38;;;18.60;99.90;;;;;;4991764;28;20116;-80
2022/05/08 08:30:27;;;;;;;615.28;565.10;;;18.70;99.90;;;;;;4993051;28;20451;-80
2022/05/08 08:32:53;;;;;;;544.00;502.95;;;19.00;99.90;;;;;;4976174;28;20502;-79
2022/05/08 08:35:18;;;;;;;581.55;534.55;;;19.30;99.90;;;;;;4960137;28;20050;-78
2022/05/08 08:37:44;;;;;;;594.80;550.33;;;20.00;99.90;;;;;;4992602;28;20418;-78
2022/05/08 08:40:11;;;;;;;372.73;344.40;;;20.80;99.90;;;;;;4974918;28;20467;-80
2022/05/08 08:42:40;;;;;;;567.63;509.83;;;21.70;99.90;;;;;;4992587;28;20141;-78
2022/05/08 08:47:54;;;;;;;556.63;512.80;;;23.00;99.90;;;;;;4991878;28;20090;-78
2022/05/08 08:50:23;;;;;;;596.55;548.80;;;23.50;99.90;;;;;;4992375;28;20045;-78
2022/05/08 08:52:49;;;;;;;381.38;353.08;;;23.80;99.90;;;;;;4992233;28;20104;-77
2022/05/08 08:55:16;;;;;;;628.00;578.10;;;23.90;99.90;;;;;;4975832;28;20050;-77
2022/05/08 08:57:45;;;;;;;755.83;699.13;;;23.80;99.90;;;;;;4974225;28;20182;-78
2022/05/08 09:00:11;;;;;;;737.63;684.30;;;23.50;99.90;;;;;;4992473;28;20073;-78
2022/05/08 09:02:38;;;;;;;222.68;207.13;;;22.80;99.90;;;;;;4992314;28;20097;-78
2022/05/08 09:05:08;;;;;;;294.65;274.73;;;22.90;99.90;;;;;;4992616;28;20163;-78
2022/05/08 09:07:33;;;;;;;343.45;320.23;;;23.30;99.90;;;;;;4974645;28;20050;-78
2022/05/08 09:10:27;;;;;;;440.55;410.85;;;23.30;99.90;;;;;;4975000;28;20073;-78
2022/05/08 09:12:53;;;;;;;569.70;525.45;;;23.80;99.90;;;;;;4971362;28;20568;-78
2022/05/08 09:15:21;;;;;;;529.72;492.38;;;24.70;99.90;;;;;;4992506;28;20056;-79
2022/05/08 09:17:48;;;;;;;663.67;616.90;;;25.40;99.90;;;;;;4991722;28;20062;-78
2022/05/08 09:20:31;;;;;;;574.65;535.40;;;26.10;99.90;;;;;;4991792;28;20085;-78
2022/05/08 09:23:07;;;;;;;264.80;247.85;;;26.80;99.90;;;;;;4991742;28;20056;-80
2022/05/08 09:25:45;;;;;;;281.02;262.40;;;27.30;99.90;;;;;;4975230;28;20164;-79
2022/05/08 09:28:15;;;;;;;173.80;161.82;;;27.40;99.90;;;;;;4975174;28;20133;-78
2022/05/08 09:31:00;;;;;;;290.88;267.92;;;27.00;99.90;;;;;;4991088;28;20049;-79
2022/05/08 09:33:26;;;;;;;156.15;147.13;;;27.00;99.90;;;;;;4991962;28;20046;-79
2022/05/08 09:35:52;;;;;;;367.05;341.10;;;27.10;99.90;;;;;;4991143;28;20082;-78
2022/05/08 09:38:18;;;;;;;364.50;336.65;;;26.90;99.90;;;;;;4991996;28;20518;-78
2022/05/08 09:40:45;;;;;;;262.27;246.07;;;27.50;99.90;;;;;;4991644;28;20432;-79
2022/05/08 09:43:28;;;;;;;245.07;230.20;;;27.90;99.90;;;;;;4992051;28;20046;-78
2022/05/08 09:46:00;;;;;;;170.85;160.23;;;28.40;99.90;;;;;;4991573;28;20050;-78
2022/05/08 09:48:28;;;;;;;232.48;218.07;;;28.50;99.90;;;;;;4974919;28;20042;-78
2022/05/08 09:50:58;;;;;;;239.18;223.07;;;28.60;99.90;;;;;;4991045;28;20046;-80
2022/05/08 09:53:26;;;;;;;493.33;455.75;;;28.90;99.90;;;;;;4974170;28;20051;-77
2022/05/08 09:55:53;;;;;;;197.35;185.73;;;28.90;99.90;;;;;;4974017;28;20082;-76
2022/05/08 09:58:19;;;;;;;410.42;381.08;;;29.10;99.90;;;;;;4992048;28;20100;-77
2022/05/08 10:00:46;;;;;;;245.88;230.65;;;29.40;99.90;;;;;;4990995;28;20144;-78
2022/05/08 10:03:14;;;;;;;248.57;231.65;;;29.20;99.90;;;;;;4974277;28;20125;-77
2022/05/08 10:05:43;;;;;;;199.60;186.02;;;29.50;99.90;;;;;;4991446;28;20046;-78
2022/05/08 10:08:11;;;;;;;160.45;149.77;;;29.60;99.90;;;;;;4992192;28;20058;-77
2022/05/08 10:13:54;;;;;;;197.85;183.88;;;29.30;99.90;;;;;;4991433;28;20054;-77
2022/05/08 10:17:04;;;;;;;245.82;231.02;;;30.00;99.90;;;;;;4992042;28;20491;-77
2022/05/08 10:19:29;;;;;;;214.95;201.98;;;30.30;99.90;;;;;;4998102;28;20438;-77
2022/05/08 10:22:06;;;;;;;152.70;143.82;;;30.50;99.90;;;;;;4979950;28;20046;-78
2022/05/08 10:24:34;;;;;;;120.47;113.38;;;30.10;99.90;;;;;;4980497;28;20444;-78
2022/05/08 10:27:21;;;;;;;663.92;613.22;;;30.10;99.90;;;;;;4980188;28;20058;-77
2022/05/08 10:29:50;;;;;;;156.73;147.57;;;30.50;99.90;;;;;;4996855;28;20073;-77
2022/05/08 10:32:33;;;;;;;131.48;123.78;;;31.10;99.90;;;;;;4997228;28;20128;-77
2022/05/08 10:35:16;;;;;;;274.73;254.30;;;31.70;99.90;;;;;;4997907;28;20058;-76
2022/05/08 10:37:43;;;;;;;233.88;216.65;;;31.80;99.90;;;;;;4997069;28;20759;-78
2022/05/08 10:40:24;;;;;;;165.98;154.38;;;31.60;99.90;;;;;;4997545;28;20491;-76
2022/05/08 10:42:55;;;;;;;177.35;164.70;;;31.00;99.90;;;;;;4996794;28;20093;-76
2022/05/08 10:45:33;;;;;;;106.68;100.28;;;31.10;99.90;;;;;;4980404;28;20058;-77
2022/05/08 10:47:59;;;;;;;160.90;151.07;;;31.30;99.90;;;;;;4997373;28;20046;-77
2022/05/08 10:50:25;;;;;;;495.17;458.77;;;31.10;99.90;;;;;;4996537;28;20038;-77
2022/05/08 10:52:51;;;;;;;92.50;86.75;;;30.90;99.90;;;;;;4979170;28;20380;-78
2022/05/08 10:55:19;;;;;;;117.82;109.95;;;30.70;99.90;;;;;;4997273;28;20054;-77
2022/05/08 10:57:50;;;;;;;141.93;132.00;;;30.50;99.90;;;;;;4996708;28;20258;-77
2022/05/08 11:00:21;;;;;;;135.90;127.45;;;30.30;99.90;;;;;;4997538;28;20074;-76
2022/05/08 11:02:51;;;;;;;295.73;276.30;;;30.40;99.90;;;;;;4979451;28;20535;-77
2022/05/08 11:05:24;;;;;;;140.48;131.82;;;30.70;99.90;;;;;;4979158;28;20058;-77
2022/05/08 11:07:56;;;;;;;199.45;186.70;;;30.90;99.90;;;;;;4979833;28;20438;-77
2022/05/08 11:10:23;;;;;;;271.10;252.27;;;30.70;99.90;;;;;;4997698;28;20051;-76
2022/05/08 11:13:05;;;;;;;476.88;442.00;;;30.40;99.90;;;;;;4996737;28;20459;-77
2022/05/08 11:15:35;;;;;;;300.35;280.58;;;30.80;99.90;;;;;;4997062;28;20049;-77
2022/05/08 11:18:09;;;;;;;383.52;354.65;;;31.20;99.90;;;;;;4977644;28;20097;-78
2022/05/08 11:20:43;;;;;;;462.83;430.63;;;31.50;99.90;;;;;;4997431;28;20042;-78
2022/05/08 11:23:13;;;;;;;452.40;419.63;;;31.80;99.90;;;;;;4979322;28;20157;-78
2022/05/08 11:25:39;;;;;;;478.83;445.95;;;31.90;99.90;;;;;;4997239;28;20046;-79
2022/05/08 11:28:11;;;;;;;551.97;513.60;;;31.90;99.90;;;;;;4979295;28;20060;-78
2022/05/08 11:30:37;;;;;;;381.95;354.17;;;31.50;99.90;;;;;;4977187;28;20100;-82
2022/05/08 11:36:05;;;;;;;502.58;466.98;;;31.90;99.90;;;;;;4993014;28;20495;-78
2022/05/08 11:38:44;;;;;;;439.88;408.73;;;31.70;99.90;;;;;;4994170;28;20045;-78
2022/05/08 11:41:12;;;;;;;390.67;362.23;;;31.60;99.90;;;;;;4993268;28;20097;-77
2022/05/08 11:43:39;;;;;;;;;;;31.70;99.90;;;;;;4994169;28;20047;-78
2022/05/08 11:46:07;;;;;;;478.60;444.92;;;32.10;99.90;;;;;;4993787;28;20290;-77
2022/05/08 11:48:40;;;;;;;530.92;493.63;;;31.30;99.90;;;;;;4994315;28;20065;-79
2022/05/08 11:51:10;;;;;;;402.50;372.92;;;30.90;99.90;;;;;;4992991;28;20061;-79
2022/05/08 11:53:43;;;;;;;434.92;403.52;;;30.90;99.90;;;;;;4976016;28;20055;-78
2022/05/08 11:56:32;;;;;;;492.95;456.60;;;30.90;99.90;;;;;;4993410;28;20051;-78
2022/05/08 11:59:06;;;;;;;529.50;491.75;;;30.90;99.90;;;;;;4993188;28;20095;-78
2022/05/08 12:01:34;;;;;;;673.17;625.47;;;30.80;99.90;;;;;;4994075;28;20057;-78
2022/05/08 12:04:31;;;;;;;595.80;552.55;;;30.70;99.90;;;;;;4992874;28;20054;-77
2022/05/08 12:07:08;;;;;;;333.83;310.50;;;30.40;99.90;;;;;;4992626;28;20360;-78
2022/05/08 12:09:43;;;;;;;633.43;589.27;;;31.00;99.90;;;;;;4993742;28;20050;-77
2022/05/08 12:12:25;;;;;;;267.25;248.30;;;31.10;99.90;;;;;;4992870;28;20526;-77
2022/05/08 12:14:53;;;;;;;427.00;396.17;;;31.20;99.90;;;;;;4993133;28;20158;-79
2022/05/08 12:17:19;;;;;;;372.40;345.73;;;30.80;99.90;;;;;;4993545;28;20054;-79
2022/05/08 12:19:54;;;;;;;381.55;354.20;;;30.90;99.90;;;;;;4975841;28;20459;-79
2022/05/08 12:22:22;;;;;;;446.30;413.38;;;30.70;99.90;;;;;;4993581;28;20057;-79
2022/05/08 12:24:48;;;;;;;480.60;444.52;;;29.20;99.90;;;;;;4993391;28;20133;-78
2022/05/08 12:27:14;;;;;;;460.00;424.90;;;27.10;99.90;;;;;;4975986;28;20113;-78
2022/05/08 12:29:43;;;;;;;354.25;328.15;;;26.30;99.90;;;;;;4975645;28;20379;-78
2022/05/08 12:32:09;;;;;;;587.10;542.60;;;25.30;99.90;;;;;;4992951;28;20108;-79
2022/05/08 12:34:35;;;;;;;685.17;627.55;;;24.40;99.90;;;;;;4993360;28;20484;-78
2022/05/08 12:37:01;;;;;;;179.15;167.07;;;23.40;99.90;;;;;;4992484;28;20042;-78
2022/05/08 12:39:26;;;;;;;826.55;753.15;;;22.70;99.90;;;;;;4993546;28;20446;-78